Thursday, November 27, 2014
22:59 UTC
  |  Log In   |  Register Free
Airport Search:

Dawson Municipal Airport
(16J)

Dawson Municipal Airport Diagram
No Airport Diagram Available

FAA data valid effective November 13, 2014 - January 08, 2015 (unless otherwise noted).

 
 
 
 
 
 
 
 
 
 
 
 
 
 

Current Aviation Weather for Dawson Municipal Airport (16J)

METAR data is unavailable for 16J. The nearest METAR location is at KABY (17 nm SE from 16J).

The most recent METAR observation for KABY was updated at: 2209
METAR Summary (Translated METAR)
KABY
272153Z 32007KT 10SM CLR 12/M01 A3031 RMK AO2 SLP264 T01221011 $
(17 nm SE from 16J)
KACJ
272155Z AUTO 33008KT 10SM CLR 10/M01 A3031 RMK AO2
(25 nm NE from 16J)
TAF Summary (Translated TAF)
KABY
271720Z 2718/2818 32012G21KT P6SM SKC FM272300 32006KT P6SM SKC
  Airport Weather Conditions for 16J

Current weather conditions are
not available for 16J


The nearest NOAA weather station
is at ABY, (17 nm SE from 16J)
  
 Current Weather at ABY
54° F
Fair
Northwest winds at 8.1 mph
ABY NOAA Radar

Pressure: 30.31 in
Humidity: 40%
Wind: Northwest at 8.1 MPH (7 KT)
Dew Point: 30.0°F
Visibility: 10.00 mi


Airport Weather Forecast for 16J

Translated METAR and TAF for KABY
Translated METAR for KABY (2254 UTC 27 November 2014)
found at http://aviationweather.gov/adds/metars/
 
METAR text: KABY 272153Z 32007KT 10SM CLR 12/M01 A3031 RMK AO2 SLP264 T01221011 $
Conditions at: KABY (ALBANY , GA, US) observed 2153 UTC 27 November 2014
Temperature: 12.2°C (54°F)
Dewpoint: -1.1°C (30°F) [RH = 40%]
Pressure (altimeter): 30.31 inches Hg (1026.5 mb)
[Sea-level pressure: 1026.4 mb]
Winds: from the NW (320 degrees) at 8 MPH (7 knots; 3.6 m/s)
Visibility: 10 or more miles (16+ km)
Ceiling: at least 12,000 feet AGL
Clouds: sky clear below 12,000 feet AGL
Weather:
SOME DATA ABOVE MAY BE INACCURATE!!!
"$" is an indication the sensor requires maintenance
Translated TAF for KABY
Forecast for: KABY (ALBANY , GA, US)
TAF Text: KABY 271720Z 2718/2818 32012G21KT P6SM SKC
Forecast period: 1800 to 2300 UTC 27 November 2014
Forecast type: FROM: standard forecast or significant change
Winds: from the NW (320 degrees) at 14 MPH (12 knots; 6.2 m/s)
gusting to 24 MPH (21 knots; 10.9 m/s)
Visibility: 6 or more miles (10+ km)
Clouds: clear skies
Weather: no significant weather forecast for this period
TAF Text: FM272300 32006KT P6SM SKC
Forecast period: 2300 UTC 27 November 2014 to 1800 UTC 28 November 2014
Forecast type: FROM: standard forecast or significant change
Winds: from the NW (320 degrees) at 7 MPH (6 knots; 3.1 m/s)
Visibility: 6 or more miles (10+ km)
Clouds: clear skies
Weather: no significant weather forecast for this period

Find All Airport Services Find A Hotel Find A Rental Car Find A Golf Course Find A Restaurant $100 Hamburger



FBO's on the Field
FBO Company Facility Photos Services Transportation Aviation Fuel Prices: Prices include tax
Catering Weather Repair Courtesy Rental Type 100LL JetA JetA+ MOGAS 8087
 
Dawson/Terrell Co. Airport

This FBO has not yet been rated
FS:Independent
Last Updated: Nov-19
Login to update fuel prices
SS:
Contact Dawson/Terrell Co. AirportMore FBO Information
 
Add another FBO Facility Photos Catering Weather Repair Courtesy Rental Type 100LL JetA JetA+ MOGAS 8087
Services Transportation Aviation Fuel Prices: Prices include tax


model-print
model-print
model-print
model-print